createdAt,value
2019-05-15T00:00:13.832Z,5.80
2019-05-15T00:02:42.363Z,5.60
2019-05-15T00:05:10.921Z,5.40
2019-05-15T00:07:39.567Z,5.40
2019-05-15T00:10:09.130Z,5.30
2019-05-15T00:12:39.553Z,5.20
2019-05-15T00:15:09.228Z,5.10
2019-05-15T00:17:39.343Z,5.10
2019-05-15T00:20:09.943Z,5.10
2019-05-15T00:22:39.064Z,5.00
2019-05-15T00:25:09.412Z,5.00
2019-05-15T00:27:38.758Z,4.90
2019-05-15T00:30:09.899Z,4.90
2019-05-15T00:32:39.406Z,4.90
2019-05-15T00:35:09.619Z,4.90
2019-05-15T00:37:38.993Z,4.90
2019-05-15T00:40:08.988Z,4.90
2019-05-15T00:42:38.371Z,5.00
2019-05-15T00:45:09.475Z,5.00
2019-05-15T00:47:39.787Z,5.00
2019-05-15T00:50:09.461Z,5.00
2019-05-15T00:52:39.189Z,5.00
2019-05-15T00:55:09.010Z,4.90
2019-05-15T00:57:39.173Z,4.90
2019-05-15T01:00:09.407Z,4.90
2019-05-15T01:02:38.806Z,4.90
2019-05-15T01:05:08.465Z,4.90
2019-05-15T01:07:39.178Z,4.80
2019-05-15T01:10:09.882Z,4.80
2019-05-15T01:12:38.763Z,4.70
2019-05-15T01:15:09.198Z,4.70
2019-05-15T01:17:39.108Z,4.70
2019-05-15T01:20:08.627Z,4.60
2019-05-15T01:22:39.308Z,4.60
2019-05-15T01:25:08.577Z,4.50
2019-05-15T01:27:38.714Z,4.50
2019-05-15T01:30:09.231Z,4.50
2019-05-15T01:32:39.377Z,4.60
2019-05-15T01:35:09.652Z,4.60
2019-05-15T01:37:39.067Z,4.50
2019-05-15T01:40:09.053Z,4.50
2019-05-15T01:42:38.896Z,4.40
2019-05-15T01:45:08.850Z,4.40
2019-05-15T01:47:38.996Z,4.40
2019-05-15T01:50:09.189Z,4.30
2019-05-15T01:52:38.922Z,4.20
2019-05-15T01:55:09.316Z,4.20
2019-05-15T01:57:38.553Z,4.20
2019-05-15T02:00:09.383Z,4.10
2019-05-15T02:02:38.947Z,4.00
2019-05-15T02:05:09.065Z,4.00
2019-05-15T02:07:39.149Z,3.90
2019-05-15T02:10:09.101Z,3.90
2019-05-15T02:12:39.019Z,3.80
2019-05-15T02:15:09.589Z,3.80
2019-05-15T02:17:39.161Z,3.80
2019-05-15T02:20:08.718Z,3.80
2019-05-15T02:22:42.014Z,3.80
2019-05-15T02:25:08.577Z,3.80
2019-05-15T02:27:39.339Z,3.90
2019-05-15T02:30:22.504Z,3.80
2019-05-15T02:32:40.153Z,3.80
2019-05-15T02:35:10.062Z,3.70
2019-05-15T02:37:41.081Z,3.60
2019-05-15T02:40:10.652Z,3.60
2019-05-15T02:42:40.255Z,3.60
2019-05-15T02:45:10.582Z,3.60
2019-05-15T02:47:40.041Z,3.40
2019-05-15T02:50:10.754Z,3.30
2019-05-15T02:52:44.534Z,3.20
2019-05-15T02:55:09.942Z,3.20
2019-05-15T02:57:39.310Z,3.20
2019-05-15T03:00:10.742Z,3.10
2019-05-15T03:02:41.377Z,3.10
2019-05-15T03:05:10.254Z,3.10
2019-05-15T03:07:40.211Z,3.10
2019-05-15T03:10:09.703Z,3.10
2019-05-15T03:12:40.823Z,3.10
2019-05-15T03:15:09.632Z,3.10
2019-05-15T03:17:40.475Z,3.10
2019-05-15T03:20:10.403Z,3.10
2019-05-15T03:22:40.350Z,3.10
2019-05-15T03:25:11.231Z,3.00
2019-05-15T03:27:40.312Z,3.00
2019-05-15T03:30:13.075Z,2.90
2019-05-15T03:32:50.494Z,2.80
2019-05-15T03:35:14.403Z,2.80
2019-05-15T03:37:40.934Z,2.80
2019-05-15T03:40:10.706Z,2.80
2019-05-15T03:42:40.042Z,2.80
2019-05-15T03:45:10.393Z,2.80
2019-05-15T03:47:40.232Z,2.80
2019-05-15T03:50:10.015Z,2.80
2019-05-15T03:52:39.648Z,2.80
2019-05-15T03:55:10.825Z,2.90
2019-05-15T03:57:40.278Z,2.80
2019-05-15T04:00:10.195Z,2.80
2019-05-15T04:02:39.626Z,2.70
2019-05-15T04:05:11.619Z,2.80
2019-05-15T04:07:40.094Z,2.70
2019-05-15T04:10:10.222Z,2.80
2019-05-15T04:12:40.505Z,2.80
2019-05-15T04:15:10.578Z,2.90
2019-05-15T04:17:40.461Z,2.90
2019-05-15T04:20:10.408Z,3.00
2019-05-15T04:22:40.289Z,3.00
2019-05-15T04:25:10.126Z,3.00
2019-05-15T04:27:40.864Z,3.00
2019-05-15T04:30:11.069Z,3.00
2019-05-15T04:32:40.495Z,3.10
2019-05-15T04:35:09.855Z,3.10
2019-05-15T04:37:40.524Z,3.20
2019-05-15T04:40:09.838Z,3.20
2019-05-15T04:42:39.818Z,3.30
2019-05-15T04:45:10.170Z,3.40
2019-05-15T04:47:40.056Z,3.50
2019-05-15T04:50:10.356Z,3.50
2019-05-15T04:52:43.055Z,3.60
2019-05-15T04:55:10.405Z,3.70
2019-05-15T04:57:40.593Z,3.80
2019-05-15T05:00:10.447Z,3.80
2019-05-15T05:02:40.304Z,4.00
2019-05-15T05:05:10.393Z,4.10
2019-05-15T05:07:39.544Z,4.20
2019-05-15T05:10:09.515Z,4.20
2019-05-15T05:12:42.051Z,4.30
2019-05-15T05:15:09.211Z,4.40
2019-05-15T05:17:39.204Z,4.50
2019-05-15T05:20:08.468Z,4.60
2019-05-15T05:22:39.335Z,4.70
2019-05-15T05:25:08.461Z,4.80
2019-05-15T05:27:38.349Z,5.00
2019-05-15T05:30:08.697Z,5.20
2019-05-15T05:32:38.976Z,5.30
2019-05-15T05:35:08.564Z,5.50
2019-05-15T05:37:38.938Z,5.70
2019-05-15T05:40:08.217Z,6.00
2019-05-15T05:42:38.973Z,6.10
2019-05-15T05:45:09.321Z,6.30
2019-05-15T05:47:38.539Z,6.50
2019-05-15T05:50:08.518Z,6.70
2019-05-15T05:52:38.985Z,6.80
2019-05-15T05:55:09.501Z,7.00
2019-05-15T05:57:38.704Z,7.20
2019-05-15T06:00:11.433Z,7.40
2019-05-15T06:02:47.726Z,7.60
2019-05-15T06:05:10.283Z,7.70
2019-05-15T06:07:38.997Z,7.90
2019-05-15T06:10:08.955Z,8.00
2019-05-15T06:12:38.947Z,8.10
2019-05-15T06:15:09.066Z,8.20
2019-05-15T06:17:39.161Z,8.30
2019-05-15T06:20:08.269Z,8.30
2019-05-15T06:22:38.775Z,8.40
2019-05-15T06:25:10.716Z,8.30
2019-05-15T06:27:39.081Z,8.40
2019-05-15T06:30:08.790Z,8.60
2019-05-15T06:32:39.859Z,8.60
2019-05-15T06:35:09.294Z,8.70
2019-05-15T06:37:39.662Z,8.70
2019-05-15T06:40:08.658Z,8.70
2019-05-15T06:42:39.442Z,8.70
2019-05-15T06:45:08.321Z,8.60
2019-05-15T06:47:39.245Z,8.70
2019-05-15T06:50:10.916Z,8.80
2019-05-15T06:52:39.371Z,8.80
2019-05-15T06:55:09.047Z,9.10
2019-05-15T06:57:39.697Z,9.30
2019-05-15T07:00:09.474Z,9.40
2019-05-15T07:02:38.379Z,9.40
2019-05-15T07:05:07.991Z,9.40
2019-05-15T07:07:38.713Z,9.40
2019-05-15T07:10:09.072Z,9.20
2019-05-15T07:12:39.059Z,9.40
2019-05-15T07:15:09.108Z,9.50
2019-05-15T07:17:39.179Z,9.60
2019-05-15T07:20:09.609Z,9.80
2019-05-15T07:22:39.083Z,9.90
2019-05-15T07:25:09.278Z,9.90
2019-05-15T07:27:38.970Z,9.90
2019-05-15T07:30:11.920Z,9.70
2019-05-15T07:32:40.192Z,9.80
2019-05-15T07:35:09.293Z,10.00
2019-05-15T07:37:38.753Z,10.00
2019-05-15T07:40:29.760Z,9.90
2019-05-15T07:42:58.791Z,10.00
2019-05-15T07:45:28.282Z,9.90
2019-05-15T07:47:58.467Z,10.00
2019-05-15T07:50:29.843Z,10.20
2019-05-15T07:52:59.008Z,10.30
2019-05-15T07:55:29.587Z,10.50
2019-05-15T07:57:59.210Z,10.50
2019-05-15T08:00:28.953Z,10.50
2019-05-15T08:02:58.634Z,10.60
2019-05-15T08:05:28.534Z,10.60
2019-05-15T08:07:58.143Z,10.70
2019-05-15T08:10:28.459Z,10.90
2019-05-15T08:12:58.090Z,10.90
2019-05-15T08:15:28.560Z,11.00
2019-05-15T08:18:05.483Z,10.90
2019-05-15T08:20:28.932Z,11.10
2019-05-15T08:22:58.245Z,11.30
2019-05-15T08:25:34.233Z,11.30
2019-05-15T08:27:58.861Z,10.80
2019-05-15T08:30:28.849Z,11.10
2019-05-15T08:32:58.857Z,11.40
2019-05-15T08:35:29.173Z,11.40
2019-05-15T08:37:58.154Z,11.50
2019-05-15T08:40:28.476Z,11.70
2019-05-15T08:43:01.874Z,11.70
2019-05-15T08:45:28.292Z,11.90
2019-05-15T08:47:58.617Z,11.90
2019-05-15T08:50:28.711Z,12.00
2019-05-15T08:52:57.911Z,12.30
2019-05-15T08:55:28.145Z,12.40
2019-05-15T08:58:07.312Z,12.20
2019-05-15T09:00:29.443Z,12.10
2019-05-15T09:02:58.180Z,12.30
2019-05-15T09:05:28.301Z,12.30
2019-05-15T09:07:58.059Z,12.50
2019-05-15T09:10:28.687Z,12.30
2019-05-15T09:12:58.604Z,12.50
2019-05-15T09:15:29.368Z,12.80
2019-05-15T09:18:11.305Z,12.80
2019-05-15T09:20:28.773Z,13.10
2019-05-15T09:22:58.233Z,12.80
2019-05-15T09:25:28.745Z,13.20
2019-05-15T09:27:57.973Z,13.10
2019-05-15T09:30:28.603Z,13.30
2019-05-15T09:32:58.839Z,13.30
2019-05-15T09:35:27.831Z,13.20
2019-05-15T09:37:58.296Z,13.20
2019-05-15T09:40:41.295Z,13.40
2019-05-15T09:42:57.833Z,13.50
2019-05-15T09:45:28.535Z,13.70
2019-05-15T09:47:58.817Z,14.00
2019-05-15T09:50:28.240Z,14.10
2019-05-15T09:52:58.805Z,14.20
2019-05-15T09:55:28.497Z,14.30
2019-05-15T09:57:59.073Z,14.60
2019-05-15T10:00:29.198Z,14.70
2019-05-15T10:02:58.072Z,14.80
2019-05-15T10:05:28.128Z,15.00
2019-05-15T10:07:56.796Z,15.50
2019-05-15T10:10:25.284Z,15.90
2019-05-15T10:12:53.772Z,16.30
2019-05-15T10:15:22.374Z,16.70
2019-05-15T10:17:51.478Z,16.80
2019-05-15T10:20:20.225Z,17.20
2019-05-15T10:22:48.717Z,17.40
2019-05-15T10:25:18.975Z,18.10
2019-05-15T10:27:48.859Z,17.40
2019-05-15T10:30:18.932Z,17.40
2019-05-15T10:32:48.769Z,17.30
2019-05-15T10:35:27.528Z,16.50
2019-05-15T10:37:48.726Z,16.90
2019-05-15T10:40:20.346Z,16.60
2019-05-15T10:42:49.660Z,17.70
2019-05-15T10:45:19.255Z,18.20
2019-05-15T10:47:49.572Z,18.10
2019-05-15T10:50:19.218Z,19.10
2019-05-15T10:52:48.879Z,19.80
2019-05-15T10:55:18.896Z,19.60
2019-05-15T10:57:47.887Z,18.90
2019-05-15T11:00:19.520Z,18.80
2019-05-15T11:02:48.942Z,19.00
2019-05-15T11:05:19.119Z,18.00
2019-05-15T11:07:48.252Z,18.40
2019-05-15T11:10:18.589Z,18.00
2019-05-15T11:12:47.563Z,19.30
2019-05-15T11:15:18.451Z,19.90
2019-05-15T11:17:48.969Z,20.90
2019-05-15T11:20:18.791Z,16.60
2019-05-15T11:22:50.004Z,17.70
2019-05-15T11:25:17.879Z,18.50
2019-05-15T11:27:48.420Z,18.70
2019-05-15T11:30:19.250Z,18.80
2019-05-15T11:32:48.685Z,19.10
2019-05-15T11:35:18.551Z,19.90
2019-05-15T11:37:56.020Z,19.80
2019-05-15T11:40:18.877Z,18.40
2019-05-15T11:42:48.744Z,18.20
2019-05-15T11:45:18.541Z,18.70
2019-05-15T11:47:48.295Z,18.80
2019-05-15T11:50:20.415Z,17.80
2019-05-15T11:52:48.208Z,18.50
2019-05-15T11:55:16.937Z,18.20
2019-05-15T11:57:47.697Z,18.30
2019-05-15T12:00:25.688Z,18.80
2019-05-15T12:02:48.078Z,18.40
2019-05-15T12:05:18.318Z,18.10
2019-05-15T12:07:47.776Z,17.30
2019-05-15T12:10:18.397Z,17.60
2019-05-15T12:12:49.660Z,17.80
2019-05-15T12:15:19.099Z,17.50
2019-05-15T12:17:48.622Z,17.80
2019-05-15T12:20:19.403Z,17.40
2019-05-15T12:22:48.646Z,17.40
2019-05-15T12:25:17.576Z,17.70
2019-05-15T12:27:48.857Z,16.80
2019-05-15T12:30:19.797Z,15.60
2019-05-15T12:32:49.250Z,16.60
2019-05-15T12:35:20.508Z,17.10
2019-05-15T12:37:47.676Z,16.90
2019-05-15T13:00:24.215Z,17.60
2019-05-15T13:02:52.780Z,17.60
2019-05-15T13:05:21.240Z,17.40
2019-05-15T13:07:49.740Z,17.90
2019-05-15T13:10:18.559Z,18.10
2019-05-15T13:12:59.390Z,18.90
2019-05-15T13:15:18.940Z,18.70
2019-05-15T13:17:52.619Z,19.60
2019-05-15T13:20:18.569Z,21.10
2019-05-15T13:25:18.644Z,20.90
2019-05-15T13:27:48.624Z,21.70
2019-05-15T13:30:18.313Z,22.20
2019-05-15T13:32:49.418Z,23.40
2019-05-15T13:35:18.349Z,24.40
2019-05-15T13:37:49.473Z,23.50
2019-05-15T13:40:18.655Z,24.10
2019-05-15T13:42:48.596Z,23.80
2019-05-15T13:45:18.345Z,22.20
2019-05-15T13:47:46.948Z,22.30
2019-05-15T13:50:15.736Z,23.30
2019-05-15T13:52:44.301Z,23.20
2019-05-15T13:55:12.977Z,24.80
2019-05-15T13:57:41.455Z,24.20
2019-05-15T14:00:11.111Z,24.30
2019-05-15T14:02:39.710Z,22.10
2019-05-15T14:05:09.479Z,22.30
2019-05-15T14:07:49.014Z,22.30
2019-05-15T14:10:09.735Z,23.80
2019-05-15T14:12:38.525Z,22.60
2019-05-15T14:15:09.100Z,23.60
2019-05-15T14:17:38.249Z,24.70
2019-05-15T14:20:09.034Z,24.10
2019-05-15T14:22:38.927Z,23.90
2019-05-15T14:25:09.588Z,23.90
2019-05-15T14:27:39.749Z,23.30
2019-05-15T14:30:09.969Z,22.90
2019-05-15T14:32:39.259Z,23.30
2019-05-15T14:35:09.534Z,22.90
2019-05-15T14:37:38.241Z,22.10
2019-05-15T14:40:09.079Z,23.70
2019-05-15T14:42:39.479Z,25.50
2019-05-15T14:45:10.096Z,23.90
2019-05-15T14:47:39.674Z,23.30
2019-05-15T14:50:09.879Z,23.80
2019-05-15T14:52:39.072Z,23.10
2019-05-15T14:55:08.334Z,23.00
2019-05-15T14:57:39.280Z,24.20
2019-05-15T15:00:09.158Z,24.50
2019-05-15T15:02:38.966Z,25.20
2019-05-15T15:05:09.022Z,25.10
2019-05-15T15:07:38.489Z,24.50
2019-05-15T15:10:08.345Z,24.30
2019-05-15T15:12:39.581Z,24.00
2019-05-15T15:15:09.803Z,23.80
2019-05-15T15:17:38.720Z,23.30
2019-05-15T15:20:08.005Z,23.80
2019-05-15T15:22:39.168Z,24.90
2019-05-15T15:25:09.525Z,23.70
2019-05-15T15:27:39.027Z,24.70
2019-05-15T15:30:09.281Z,24.10
2019-05-15T15:32:38.661Z,24.50
2019-05-15T15:35:09.408Z,24.80
2019-05-15T15:37:38.554Z,23.80
2019-05-15T15:40:08.460Z,21.10
2019-05-15T15:42:39.593Z,19.70
2019-05-15T15:45:09.372Z,18.80
2019-05-15T15:47:39.032Z,19.30
2019-05-15T15:50:09.635Z,18.70
2019-05-15T15:52:38.920Z,17.70
2019-05-15T15:55:09.408Z,17.60
2019-05-15T15:57:39.842Z,17.30
2019-05-15T16:00:10.541Z,16.80
2019-05-15T16:02:41.171Z,16.60
2019-05-15T16:05:09.807Z,17.40
2019-05-15T16:07:38.577Z,17.50
2019-05-15T16:10:08.501Z,17.70
2019-05-15T16:12:38.714Z,17.10
2019-05-15T16:15:09.015Z,16.50
2019-05-15T16:17:38.458Z,17.00
2019-05-15T16:20:09.425Z,16.70
2019-05-15T16:22:38.331Z,16.10
2019-05-15T16:25:09.708Z,15.80
2019-05-15T16:27:38.914Z,15.80
2019-05-15T16:30:08.795Z,16.50
2019-05-15T16:32:38.877Z,17.00
2019-05-15T16:35:09.160Z,17.80
2019-05-15T16:37:39.082Z,18.50
2019-05-15T16:40:09.014Z,18.50
2019-05-15T16:42:41.895Z,17.50
2019-05-15T16:45:09.316Z,17.50
2019-05-15T16:47:38.991Z,17.80
2019-05-15T16:50:09.336Z,17.60
2019-05-15T16:52:38.894Z,17.20
2019-05-15T16:55:09.482Z,16.30
2019-05-15T16:57:38.966Z,15.80
2019-05-15T17:00:09.785Z,15.20
2019-05-15T17:02:39.485Z,14.70
2019-05-15T17:05:09.584Z,14.50
2019-05-15T17:07:38.991Z,14.40
2019-05-15T17:10:08.598Z,14.20
2019-05-15T17:12:38.846Z,14.20
2019-05-15T17:15:09.455Z,14.00
2019-05-15T17:17:38.663Z,13.90
2019-05-15T17:20:10.008Z,13.70
2019-05-15T17:22:38.900Z,13.70
2019-05-15T17:25:09.260Z,13.60
2019-05-15T17:27:38.217Z,13.60
2019-05-15T17:30:09.300Z,13.60
2019-05-15T17:32:39.801Z,13.50
2019-05-15T17:35:10.146Z,13.40
2019-05-15T17:37:39.045Z,13.30
2019-05-15T17:40:09.336Z,13.30
2019-05-15T17:42:39.084Z,13.30
2019-05-15T17:45:09.239Z,13.20
2019-05-15T17:47:38.821Z,13.20
2019-05-15T17:50:08.888Z,13.20
2019-05-15T17:52:38.627Z,13.10
2019-05-15T17:55:08.132Z,13.00
2019-05-15T17:57:38.723Z,12.90
2019-05-15T18:00:11.593Z,12.90
2019-05-15T18:02:38.286Z,12.80
2019-05-15T18:05:07.660Z,12.70
2019-05-15T18:07:38.696Z,12.80
2019-05-15T18:10:08.402Z,12.90
2019-05-15T18:12:38.910Z,12.90
2019-05-15T18:15:09.143Z,13.00
2019-05-15T18:17:39.300Z,13.00
2019-05-15T18:20:09.890Z,13.00
2019-05-15T18:22:38.897Z,13.00
2019-05-15T18:25:09.087Z,13.00
2019-05-15T18:27:38.885Z,12.90
2019-05-15T18:30:09.366Z,12.90
2019-05-15T18:32:39.089Z,12.90
2019-05-15T18:35:09.068Z,12.80
2019-05-15T18:37:39.224Z,12.70
2019-05-15T18:40:10.043Z,12.60
2019-05-15T18:42:39.487Z,12.60
2019-05-15T18:45:09.332Z,12.60
2019-05-15T18:47:38.999Z,12.50
2019-05-15T18:50:13.246Z,12.30
2019-05-15T18:52:38.975Z,12.30
2019-05-15T18:55:08.152Z,12.10
2019-05-15T18:57:38.525Z,12.00
2019-05-15T19:00:09.187Z,11.80
2019-05-15T19:02:39.790Z,11.60
2019-05-15T19:05:08.688Z,11.60
2019-05-15T19:07:38.284Z,11.50
2019-05-15T19:10:10.575Z,11.50
2019-05-15T19:12:39.181Z,11.40
2019-05-15T19:15:09.183Z,11.30
2019-05-15T19:17:38.828Z,11.20
2019-05-15T19:20:09.146Z,11.10
2019-05-15T19:22:40.625Z,10.90
2019-05-15T19:25:09.134Z,10.90
2019-05-15T19:27:38.992Z,10.80
2019-05-15T19:30:08.624Z,10.70
2019-05-15T19:32:38.743Z,10.60
2019-05-15T19:35:08.170Z,10.50
2019-05-15T19:37:38.385Z,10.50
2019-05-15T19:40:09.079Z,10.40
2019-05-15T19:42:40.698Z,10.30
2019-05-15T19:45:10.401Z,10.30
2019-05-15T19:47:39.120Z,10.20
2019-05-15T19:50:09.781Z,10.10
2019-05-15T19:52:40.456Z,10.00
2019-05-15T19:55:12.064Z,9.90
2019-05-15T19:57:40.644Z,9.90
2019-05-15T20:00:10.943Z,9.80
2019-05-15T20:02:39.468Z,9.80
2019-05-15T20:05:09.119Z,9.80
2019-05-15T20:07:38.938Z,9.80
2019-05-15T20:10:08.889Z,9.70
2019-05-15T20:12:38.784Z,9.70
2019-05-15T20:15:10.017Z,9.70
2019-05-15T20:17:38.957Z,9.70
2019-05-15T20:20:08.966Z,9.70
2019-05-15T20:22:40.387Z,9.70
2019-05-15T20:25:08.890Z,9.60
2019-05-15T20:27:39.062Z,9.60
2019-05-15T20:30:28.553Z,9.60
2019-05-15T20:32:58.537Z,9.60
2019-05-15T20:35:28.307Z,9.50
2019-05-15T20:37:58.148Z,9.50
2019-05-15T20:40:26.940Z,9.40
2019-05-15T20:42:55.479Z,9.40
2019-05-15T20:45:24.572Z,9.30
2019-05-15T20:47:53.029Z,9.40
2019-05-15T20:50:21.544Z,9.30
2019-05-15T20:52:50.082Z,9.30
2019-05-15T20:55:18.641Z,9.20
2019-05-15T20:57:50.275Z,9.10
2019-05-15T21:00:19.263Z,9.00
2019-05-15T21:02:48.742Z,9.00
2019-05-15T21:05:18.671Z,8.80
2019-05-15T21:07:48.607Z,8.80
2019-05-15T21:10:21.496Z,8.70
2019-05-15T21:12:48.931Z,8.70
2019-05-15T21:15:21.391Z,8.60
2019-05-15T21:17:57.786Z,8.50
2019-05-15T21:20:18.949Z,8.40
2019-05-15T21:22:49.361Z,8.40
2019-05-15T21:25:19.667Z,8.30
2019-05-15T21:27:48.824Z,8.20
2019-05-15T21:30:18.922Z,8.10
2019-05-15T21:32:49.363Z,8.00
2019-05-15T21:35:18.161Z,8.00
2019-05-15T21:37:48.652Z,7.90
2019-05-15T21:40:17.053Z,7.90
2019-05-15T21:42:45.924Z,7.90
2019-05-15T21:45:14.906Z,7.80
2019-05-15T21:47:43.462Z,7.70
2019-05-15T21:50:12.465Z,7.70
2019-05-15T21:52:41.030Z,7.60
2019-05-15T21:55:09.877Z,7.50
2019-05-15T21:57:40.199Z,7.50
2019-05-15T22:00:31.956Z,7.50
2019-05-15T22:03:00.578Z,7.40
2019-05-15T22:05:30.845Z,7.40
2019-05-15T22:07:59.676Z,7.40
2019-05-15T22:10:28.754Z,7.30
2019-05-15T22:12:58.954Z,7.30
2019-05-15T22:15:28.746Z,7.30
2019-05-15T22:17:57.684Z,7.30
2019-05-15T22:20:47.757Z,7.30
2019-05-15T22:23:15.834Z,7.30
2019-05-15T22:25:49.593Z,7.30
2019-05-15T22:28:16.446Z,7.30
2019-05-15T22:30:45.048Z,7.30
2019-05-15T22:33:13.686Z,7.20
2019-05-15T22:35:42.313Z,7.10
2019-05-15T22:38:10.875Z,7.10
2019-05-15T22:40:39.396Z,7.00
2019-05-15T22:43:10.696Z,6.90
2019-05-15T22:45:38.543Z,6.80
2019-05-15T22:48:07.110Z,6.70
2019-05-15T22:50:38.329Z,6.70
2019-05-15T22:53:06.628Z,6.60
2019-05-15T22:55:35.113Z,6.60
2019-05-15T22:58:03.713Z,6.50
2019-05-15T23:00:32.280Z,6.40
2019-05-15T23:03:00.823Z,6.30
2019-05-15T23:05:31.948Z,6.30
2019-05-15T23:07:59.725Z,6.20
2019-05-15T23:10:29.256Z,6.20
2019-05-15T23:12:58.263Z,6.10
2019-05-15T23:15:28.155Z,6.10
2019-05-15T23:17:58.238Z,6.10
2019-05-15T23:20:28.620Z,6.10
2019-05-15T23:22:58.402Z,6.00
2019-05-15T23:25:29.030Z,5.90
2019-05-15T23:27:58.214Z,5.90
2019-05-15T23:30:28.750Z,5.90
2019-05-15T23:32:58.039Z,5.90
2019-05-15T23:35:35.541Z,5.80
2019-05-15T23:37:58.104Z,5.80
2019-05-15T23:40:28.725Z,5.80
2019-05-15T23:42:57.213Z,5.70
2019-05-15T23:45:25.782Z,5.60
2019-05-15T23:47:54.472Z,5.50
2019-05-15T23:50:24.497Z,5.50
2019-05-15T23:52:52.959Z,5.50
2019-05-15T23:55:21.584Z,5.40
2019-05-15T23:57:50.072Z,5.30
